Time;durP1;ratioP1;P1;durP2;ratioP2;P2;SDS_P1;SDS_P2;PMS_P1;PMS_P2;Temp;Humidity;BMP_temperature;BMP_pressure;BME280_temperature;BME280_humidity;BME280_pressure;Samples;Min_cycle;Max_cycle;Signal;HPM_P1;HPM_P2
2023/06/30 00:00:56;;;;;;;6.55;4.15;;;;;;;19.32;85.11;100053.13;5105986;28;20503;-18
2023/06/30 00:03:27;;;;;;;6.93;4.20;;;;;;;19.32;86.73;100045.03;5105792;28;20030;-18
2023/06/30 00:05:55;;;;;;;6.80;3.75;;;;;;;19.27;85.62;100054.78;5105775;28;20020;-18
2023/06/30 00:08:25;;;;;;;7.30;4.43;;;;;;;19.09;85.41;100052.69;5105977;28;20020;-19
2023/06/30 00:10:57;;;;;;;8.32;4.25;;;;;;;18.98;85.17;100049.22;5105900;28;20039;-19
2023/06/30 00:13:26;;;;;;;6.80;4.07;;;;;;;18.91;88.74;100042.47;5105774;28;20383;-18
2023/06/30 00:16:00;;;;;;;6.88;4.20;;;;;;;18.86;88.33;100033.31;5105787;28;20084;-21
2023/06/30 00:18:25;;;;;;;6.18;4.65;;;;;;;18.92;86.87;100041.38;5105887;28;20023;-18
2023/06/30 00:21:03;;;;;;;5.65;4.22;;;;;;;18.86;87.29;100049.50;5105867;28;20032;-18
2023/06/30 00:23:30;;;;;;;6.30;4.35;;;;;;;18.66;89.36;100046.81;5105946;28;20026;-18
2023/06/30 00:25:56;;;;;;;6.75;4.10;;;;;;;18.74;89.33;100042.78;5105621;28;20384;-18
2023/06/30 00:28:24;;;;;;;6.00;3.95;;;;;;;18.75;87.84;100042.47;5105574;28;20491;-19
2023/06/30 00:30:51;;;;;;;6.50;4.03;;;;;;;18.77;89.97;100051.13;5105599;28;20032;-18
2023/06/30 00:33:19;;;;;;;5.38;4.07;;;;;;;18.55;89.57;100047.91;5106993;28;20414;-24
2023/06/30 00:35:47;;;;;;;6.30;4.10;;;;;;;18.68;88.84;100039.25;5110332;28;20050;-18
2023/06/30 00:38:15;;;;;;;5.35;3.70;;;;;;;18.86;88.42;100036.00;5110036;28;20027;-18
2023/06/30 00:40:45;;;;;;;5.45;4.00;;;;;;;18.76;88.62;100027.09;5110059;28;20123;-18
2023/06/30 00:43:12;;;;;;;5.47;4.25;;;;;;;18.65;89.89;100035.22;5109379;28;20760;-19
2023/06/30 00:45:38;;;;;;;8.27;4.63;;;;;;;18.44;91.04;100041.72;5109725;28;20739;-19
2023/06/30 00:48:03;;;;;;;7.47;4.82;;;;;;;18.37;91.53;100041.16;5109435;28;20031;-18
2023/06/30 00:50:32;;;;;;;5.47;4.55;;;;;;;18.46;92.86;100045.75;5109710;28;20476;-18
2023/06/30 00:52:59;;;;;;;6.32;4.60;;;;;;;18.63;92.90;100050.91;5109430;28;20055;-18
2023/06/30 00:55:32;;;;;;;6.82;4.78;;;;;;;18.61;93.67;100030.63;5109594;28;20145;-19
2023/06/30 00:57:58;;;;;;;19.83;10.63;;;;;;;18.80;90.94;100039.00;5109172;28;20576;-23
2023/06/30 01:00:23;;;;;;;20.92;12.10;;;;;;;19.11;89.77;100045.13;5096614;28;20028;-18
2023/06/30 01:02:52;;;;;;;28.85;14.90;;;;;;;19.38;88.22;100042.00;5088830;28;20095;-18
2023/06/30 01:05:27;;;;;;;24.67;13.00;;;;;;;19.61;85.96;100040.53;5089139;28;20024;-21
2023/06/30 01:08:29;;;;;;;19.45;11.07;;;;;;;19.81;85.02;100041.53;5089059;28;20024;-19
2023/06/30 01:10:56;;;;;;;17.13;8.88;;;;;;;19.66;83.76;100043.22;5085494;28;20139;-18
2023/06/30 01:13:24;;;;;;;16.53;8.37;;;;;;;19.66;84.94;100054.03;5088693;28;20032;-18
2023/06/30 01:15:52;;;;;;;15.15;8.35;;;;;;;19.28;86.33;100048.28;5089145;28;20289;-19
2023/06/30 01:18:20;;;;;;;17.10;8.38;;;;;;;18.99;89.02;100055.44;5088787;28;20123;-18
2023/06/30 01:20:47;;;;;;;13.40;7.80;;;;;;;18.81;89.19;100052.22;5088921;28;20020;-18
2023/06/30 01:23:20;;;;;;;11.30;7.10;;;;;;;18.62;87.67;100054.66;5088906;28;20032;-19
2023/06/30 01:25:48;;;;;;;11.48;7.18;;;;;;;18.44;90.00;100047.94;5088774;28;20058;-17
2023/06/30 01:28:15;;;;;;;11.10;6.95;;;;;;;18.61;89.06;100046.81;5088603;28;20113;-18
2023/06/30 01:30:40;;;;;;;12.00;6.70;;;;;;;18.72;89.32;100043.03;5088561;28;20062;-18
2023/06/30 01:33:10;;;;;;;17.52;7.60;;;;;;;18.73;89.12;100055.44;5088851;28;20036;-18
2023/06/30 01:35:36;;;;;;;13.90;7.40;;;;;;;18.30;91.79;100057.66;5088381;28;20684;-18
2023/06/30 01:38:04;;;;;;;14.00;7.93;;;;;;;18.24;90.43;100045.25;5088498;28;20031;-20
2023/06/30 01:40:29;;;;;;;;;;;;;;;18.43;92.27;100049.03;5088702;28;20036;-18
2023/06/30 01:42:56;;;;;;;13.73;7.75;;;;;;;18.25;93.03;100050.38;5088238;28;19920;-18
2023/06/30 01:45:24;;;;;;;12.32;7.55;;;;;;;18.39;90.90;100050.66;5088022;28;20396;-19
2023/06/30 01:47:50;;;;;;;;;;;;;;;17.96;91.44;100046.56;5088766;28;20028;-20
2023/06/30 01:50:19;;;;;;;9.70;5.28;;;;;;;17.68;93.64;100046.78;5087204;28;19960;-18
2023/06/30 01:52:49;;;;;;;10.73;5.20;;;;;;;17.74;96.11;100046.78;5088493;28;20032;-19
2023/06/30 01:55:16;;;;;;;7.13;5.15;;;;;;;17.73;95.93;100037.88;5088129;28;20023;-18
2023/06/30 01:57:41;;;;;;;7.13;5.32;;;;;;;17.73;95.77;100039.75;5088074;28;20043;-18
2023/06/30 02:00:07;;;;;;;7.88;4.85;;;;;;;17.80;94.69;100048.41;5087773;28;20104;-18
2023/06/30 02:02:32;;;;;;;8.65;5.82;;;;;;;17.81;93.76;100039.25;5087550;28;20043;-17
2023/06/30 02:04:58;;;;;;;9.48;6.10;;;;;;;18.28;95.01;100040.91;5088164;28;20107;-18
2023/06/30 02:07:26;;;;;;;12.18;7.53;;;;;;;18.29;93.43;100039.84;5087943;28;20473;-18
2023/06/30 02:09:51;;;;;;;;;;;;;;;18.36;93.97;100045.78;5088235;28;20538;-18
2023/06/30 02:12:19;;;;;;;10.57;6.90;;;;;;;18.59;90.62;100057.91;5088120;28;19915;-18
2023/06/30 02:14:44;;;;;;;13.60;6.15;;;;;;;18.45;90.84;100044.16;5088137;28;20345;-18
2023/06/30 02:17:13;;;;;;;10.45;6.30;;;;;;;18.54;89.97;100047.13;5087553;28;20085;-18
2023/06/30 02:19:41;;;;;;;10.38;6.45;;;;;;;18.91;88.06;100042.47;5087386;28;20070;-18
2023/06/30 02:22:09;;;;;;;;;;;;;;;18.98;87.84;100042.97;5088160;28;20052;-18
2023/06/30 02:24:34;;;;;;;11.10;5.55;;;;;;;19.22;85.55;100038.56;5087292;28;20010;-17
2023/06/30 02:27:00;;;;;;;7.28;5.35;;;;;;;18.78;85.99;100039.25;5086344;28;20119;-18
2023/06/30 02:29:27;;;;;;;10.60;5.22;;;;;;;18.50;88.99;100034.44;5087353;28;20821;-18
2023/06/30 02:31:53;;;;;;;13.38;5.07;;;;;;;18.51;88.43;100036.03;5087398;28;20031;-19
2023/06/30 02:34:21;;;;;;;9.15;4.95;;;;;;;18.31;89.25;100026.06;5087418;28;20032;-21
2023/06/30 02:36:48;;;;;;;;;;;;;;;18.33;86.85;100030.13;5087985;28;20402;-19
2023/06/30 02:39:13;;;;;;;9.27;4.45;;;;;;;17.91;87.32;100031.19;5087242;28;19912;-18
2023/06/30 02:41:41;;;;;;;7.85;4.53;;;;;;;17.99;90.64;100041.44;5087069;28;20035;-19
2023/06/30 02:44:08;;;;;;;7.70;4.25;;;;;;;18.18;90.57;100038.22;5086792;28;20040;-18
2023/06/30 02:46:37;;;;;;;8.38;4.72;;;;;;;18.15;88.98;100034.19;5086916;28;20036;-18
2023/06/30 02:49:02;;;;;;;10.80;5.35;;;;;;;18.28;89.16;100043.63;5087194;28;20085;-18
2023/06/30 02:51:30;;;;;;;8.98;4.60;;;;;;;18.01;89.19;100038.50;5086975;28;20032;-18
2023/06/30 02:53:55;;;;;;;6.78;4.70;;;;;;;18.10;90.06;100041.47;5086858;28;20032;-18
2023/06/30 02:56:21;;;;;;;6.57;4.90;;;;;;;18.03;88.75;100045.22;5086247;28;20039;-18
2023/06/30 02:58:46;;;;;;;6.00;4.32;;;;;;;17.81;88.08;100047.31;5086715;28;20040;-18
2023/06/30 03:01:11;;;;;;;8.30;4.60;;;;;;;17.77;91.92;100048.94;5086586;28;20062;-18
2023/06/30 03:03:38;;;;;;;16.02;7.55;;;;;;;18.15;87.50;100049.56;5087171;28;20119;-18
2023/06/30 03:06:04;;;;;;;14.95;7.80;;;;;;;17.99;87.21;100054.94;5086461;28;20047;-18
2023/06/30 03:08:31;;;;;;;10.85;6.47;;;;;;;17.51;87.45;100043.50;5086548;28;20488;-18
2023/06/30 03:10:57;;;;;;;11.52;5.50;;;;;;;17.37;89.37;100051.28;5086388;28;20436;-24
2023/06/30 03:13:22;;;;;;;7.13;4.78;;;;;;;17.16;92.18;100053.09;5086554;28;20040;-18
2023/06/30 03:15:47;;;;;;;8.30;4.80;;;;;;;16.96;94.54;100042.19;5086667;28;20103;-18
2023/06/30 03:18:15;;;;;;;9.48;5.50;;;;;;;16.77;98.72;100042.59;5086326;28;20442;-18
2023/06/30 03:20:41;;;;;;;7.30;5.30;;;;;;;16.83;100.00;100044.25;5086238;28;20570;-18
2023/06/30 03:23:07;;;;;;;10.20;6.55;;;;;;;17.19;99.76;100049.03;5086330;28;20121;-19
2023/06/30 03:25:32;;;;;;;12.07;7.43;;;;;;;16.90;99.19;100048.63;5086446;28;20457;-18
2023/06/30 03:28:00;;;;;;;10.02;6.45;;;;;;;17.19;100.00;100044.47;5086033;28;20031;-17
2023/06/30 03:30:25;;;;;;;8.27;4.97;;;;;;;17.38;96.37;100044.00;5086273;28;20532;-18
2023/06/30 03:32:51;;;;;;;6.97;4.88;;;;;;;17.91;94.60;100050.06;5086094;28;20495;-19
2023/06/30 03:35:19;;;;;;;7.00;4.93;;;;;;;17.81;92.86;100050.03;5086178;28;20410;-18
2023/06/30 03:37:54;;;;;;;8.95;4.68;;;;;;;17.65;93.60;100046.47;5086196;28;20028;-19
2023/06/30 03:40:22;;;;;;;6.75;4.43;;;;;;;18.01;91.58;100046.59;5086219;28;20032;-20
2023/06/30 03:42:48;;;;;;;7.07;4.30;;;;;;;18.30;91.62;100040.66;5085800;28;20110;-18
2023/06/30 03:45:13;;;;;;;7.18;4.72;;;;;;;18.74;87.29;100051.69;5085942;28;20501;-19
2023/06/30 03:47:40;;;;;;;7.75;4.78;;;;;;;18.71;87.26;100040.59;5085820;28;20069;-19
2023/06/30 03:50:09;;;;;;;6.18;5.22;;;;;;;18.92;85.64;100046.78;5085736;28;20028;-18
2023/06/30 03:52:37;;;;;;;8.07;5.22;;;;;;;18.82;85.50;100043.03;5085919;28;20044;-17
2023/06/30 03:55:03;;;;;;;7.90;4.75;;;;;;;18.83;84.41;100050.06;5085788;28;20225;-18
2023/06/30 03:57:28;;;;;;;5.47;4.43;;;;;;;18.70;85.83;100053.31;5085937;28;20671;-18
2023/06/30 03:59:54;;;;;;;8.10;5.03;;;;;;;18.40;83.99;100054.94;5085409;28;20024;-18
2023/06/30 04:02:19;;;;;;;6.60;4.68;;;;;;;18.40;86.86;100046.84;5085901;28;20028;-19
2023/06/30 04:04:47;;;;;;;7.35;5.30;;;;;;;18.33;84.55;100049.03;5085509;28;20031;-18
2023/06/30 04:07:12;;;;;;;6.60;4.93;;;;;;;18.38;85.72;100043.59;5085470;28;20028;-19
2023/06/30 04:09:38;;;;;;;7.03;4.82;;;;;;;18.71;85.81;100046.00;5085408;28;20035;-19
2023/06/30 04:12:04;;;;;;;6.72;4.35;;;;;;;18.75;85.20;100047.88;5085497;28;20491;-18
2023/06/30 04:14:32;;;;;;;8.02;5.20;;;;;;;18.75;85.41;100052.47;5085542;28;20032;-18
2023/06/30 04:16:59;;;;;;;9.25;4.95;;;;;;;18.95;84.49;100054.34;5085278;28;20035;-17
2023/06/30 04:19:24;;;;;;;7.47;5.38;;;;;;;18.90;85.14;100054.34;5085558;28;20016;-18
2023/06/30 04:21:49;;;;;;;8.82;5.10;;;;;;;18.69;85.55;100057.06;5085481;28;20054;-18
2023/06/30 04:24:15;;;;;;;7.70;5.15;;;;;;;18.55;86.75;100053.31;5085307;28;20212;-17
2023/06/30 04:26:41;;;;;;;10.30;6.07;;;;;;;18.38;86.08;100064.41;5085542;28;20111;-18
2023/06/30 04:29:06;;;;;;;8.60;6.32;;;;;;;17.85;90.48;100061.94;5085188;28;20024;-17
2023/06/30 04:31:31;;;;;;;8.23;6.63;;;;;;;17.98;89.89;100061.44;5085373;28;20391;-18
2023/06/30 04:33:57;;;;;;;9.07;6.93;;;;;;;17.99;90.04;100063.03;5085256;28;20422;-20
2023/06/30 04:36:22;;;;;;;10.07;7.00;;;;;;;18.26;87.64;100060.06;5085242;28;20107;-21
2023/06/30 04:38:50;;;;;;;9.63;7.03;;;;;;;18.57;85.79;100060.09;5084802;28;20040;-18
2023/06/30 04:41:18;;;;;;;11.00;7.68;;;;;;;18.72;86.04;100061.16;5085220;28;20453;-18
2023/06/30 04:43:44;;;;;;;;;;;;;;;18.76;84.70;100052.22;5085491;28;20087;-17
2023/06/30 04:46:12;;;;;;;10.75;7.60;;;;;;;18.75;82.94;100064.09;5085274;28;19973;-17
2023/06/30 04:48:37;;;;;;;;;;;;;;;18.99;83.05;100063.53;5085646;28;20113;-18
2023/06/30 04:51:06;;;;;;;10.70;7.83;;;;;;;19.15;83.10;100067.00;5085262;28;20441;-18
2023/06/30 04:53:40;;;;;;;11.77;8.20;;;;;;;19.27;83.65;100062.88;5085288;28;20331;-18
2023/06/30 04:56:08;;;;;;;9.43;8.00;;;;;;;19.31;82.98;100084.78;5085233;28;20032;-18
2023/06/30 04:58:33;;;;;;;13.13;8.45;;;;;;;19.33;81.33;100062.84;5085084;28;20111;-19
2023/06/30 05:01:06;;;;;;;14.27;8.15;;;;;;;19.59;81.46;100080.56;5085102;28;20035;-18
2023/06/30 05:03:32;;;;;;;11.15;7.80;;;;;;;19.64;79.62;100083.28;5085071;28;20563;-18
2023/06/30 05:06:00;;;;;;;11.60;8.52;;;;;;;19.76;78.79;100076.75;5084884;28;20111;-19
2023/06/30 05:08:26;;;;;;;12.55;9.23;;;;;;;19.88;80.11;100077.22;5085341;28;20157;-18
2023/06/30 05:10:51;;;;;;;10.93;8.50;;;;;;;19.87;78.95;100064.78;5085277;28;20050;-18
2023/06/30 05:13:18;;;;;;;13.70;8.43;;;;;;;19.94;78.30;100084.22;5084890;28;20028;-18
2023/06/30 05:15:43;;;;;;;12.38;7.60;;;;;;;20.03;77.37;100082.53;5084971;28;20028;-17
2023/06/30 05:18:11;;;;;;;9.73;8.23;;;;;;;20.00;79.20;100072.28;5085154;28;20097;-17
2023/06/30 05:20:39;;;;;;;;;;;;;;;20.14;77.77;100067.00;5088556;28;20035;-17
2023/06/30 05:23:04;;;;;;;13.40;8.32;;;;;;;20.29;76.30;100076.94;5088628;28;20021;-17
2023/06/30 05:25:30;;;;;;;10.90;7.90;;;;;;;20.45;74.32;100083.84;5088724;28;20794;-18
2023/06/30 05:27:55;;;;;;;10.82;8.60;;;;;;;20.43;75.50;100094.16;5088493;28;20028;-18
2023/06/30 05:30:20;;;;;;;12.50;9.63;;;;;;;20.35;76.80;100092.03;5088667;28;20127;-17
2023/06/30 05:32:46;;;;;;;13.38;8.70;;;;;;;20.31;75.15;100088.28;5088630;28;20020;-20
2023/06/30 05:35:11;;;;;;;9.50;8.50;;;;;;;20.25;75.92;100089.41;5088517;28;20028;-18
2023/06/30 05:37:37;;;;;;;12.38;9.00;;;;;;;20.17;74.70;100087.31;5086680;28;20084;-18
2023/06/30 05:40:05;;;;;;;12.50;8.70;;;;;;;20.06;77.33;100092.81;5088413;28;20537;-17
2023/06/30 05:42:30;;;;;;;11.73;9.07;;;;;;;20.06;76.74;100089.25;5087971;28;20131;-18
2023/06/30 05:44:56;;;;;;;15.88;8.95;;;;;;;20.16;77.03;100074.84;5088308;28;20028;-18
2023/06/30 05:47:23;;;;;;;12.00;8.98;;;;;;;20.43;76.63;100080.59;5088348;28;20026;-19
2023/06/30 05:49:49;;;;;;;10.57;9.20;;;;;;;20.61;76.33;100081.00;5088328;28;20027;-17
2023/06/30 05:52:14;;;;;;;11.10;9.65;;;;;;;20.82;75.57;100082.44;5088091;28;20032;-19
2023/06/30 05:54:41;;;;;;;12.18;9.75;;;;;;;20.46;75.71;100066.47;5088178;28;20028;-18
2023/06/30 05:57:06;;;;;;;9.80;8.77;;;;;;;20.74;74.69;100085.78;5088147;28;20479;-17
2023/06/30 05:59:34;;;;;;;12.02;8.95;;;;;;;20.91;74.34;100085.31;5087663;28;20028;-18
2023/06/30 06:01:59;;;;;;;;;;;;;;;21.11;72.80;100083.50;5088292;28;20050;-18
2023/06/30 06:04:25;;;;;;;10.87;8.57;;;;;;;21.12;73.23;100085.91;5087901;28;20373;-19
2023/06/30 06:06:50;;;;;;;10.73;7.88;;;;;;;21.33;70.16;100086.47;5087950;28;20289;-20
2023/06/30 06:09:16;;;;;;;8.48;6.80;;;;;;;21.34;70.03;100081.84;5086775;28;20023;-18
2023/06/30 06:11:43;;;;;;;9.43;7.05;;;;;;;21.41;67.91;100082.31;5087523;28;20077;-19
2023/06/30 06:14:08;;;;;;;9.43;7.03;;;;;;;21.46;68.36;100085.00;5087893;28;20487;-18
2023/06/30 06:16:36;;;;;;;9.75;6.78;;;;;;;21.46;67.22;100071.44;5087660;28;20034;-18
2023/06/30 06:19:02;;;;;;;10.13;6.63;;;;;;;21.54;67.42;100089.78;5087573;28;20430;-20
2023/06/30 06:21:47;;;;;;;8.18;6.55;;;;;;;21.54;67.20;100092.47;5087522;28;20507;-18
2023/06/30 06:24:18;;;;;;;9.30;6.80;;;;;;;21.68;66.15;100087.16;5087802;28;20046;-19
2023/06/30 06:26:46;;;;;;;8.25;6.63;;;;;;;21.91;65.89;100090.88;5087343;28;20111;-18
2023/06/30 06:29:24;;;;;;;;;;;;;;;;;;;;;
2023/06/30 06:31:57;;;;;;;9.20;7.07;;;;;;;22.04;64.53;100084.69;5085547;28;20361;-19
2023/06/30 06:34:26;;;;;;;7.05;6.32;;;;;;;22.19;65.01;100072.81;5087508;28;20093;-19
2023/06/30 06:36:51;;;;;;;7.43;6.00;;;;;;;22.32;64.75;100076.72;5087537;28;20114;-18
2023/06/30 06:39:20;;;;;;;7.53;6.68;;;;;;;22.45;63.68;100067.81;5087094;28;20026;-16
2023/06/30 06:41:46;;;;;;;7.38;6.45;;;;;;;22.73;63.38;100081.44;5087108;28;20021;-19
2023/06/30 06:44:14;;;;;;;8.45;6.00;;;;;;;22.95;63.22;100079.97;5086985;28;20048;-18
2023/06/30 06:46:39;;;;;;;8.00;6.10;;;;;;;23.05;61.90;100071.63;5087058;28;20483;-18
2023/06/30 06:49:05;;;;;;;7.20;5.93;;;;;;;23.15;60.96;100074.16;5086489;28;20043;-18
2023/06/30 06:51:30;;;;;;;6.50;5.10;;;;;;;23.35;61.41;100080.28;5087233;28;20028;-18
2023/06/30 06:53:56;;;;;;;8.50;6.00;;;;;;;23.20;60.81;100073.25;5087216;28;20962;-19
2023/06/30 06:56:26;;;;;;;7.57;5.80;;;;;;;23.46;60.87;100068.88;5087026;28;20024;-18
2023/06/30 06:58:53;;;;;;;7.80;5.75;;;;;;;23.86;59.67;100066.41;5086937;28;20055;-24
2023/06/30 07:01:18;;;;;;;6.10;5.15;;;;;;;23.87;57.67;100067.19;5087103;28;20426;-19
2023/06/30 07:03:44;;;;;;;7.85;5.82;;;;;;;23.99;57.82;100064.72;5086798;28;20606;-19
2023/06/30 07:06:16;;;;;;;7.60;5.68;;;;;;;23.91;57.81;100067.38;5086751;28;20253;-18
2023/06/30 07:08:41;;;;;;;7.38;5.75;;;;;;;23.92;58.22;100079.88;5086644;28;20039;-18
2023/06/30 07:11:08;;;;;;;7.50;5.32;;;;;;;23.89;57.29;100070.41;5086662;28;20027;-17
2023/06/30 07:13:33;;;;;;;7.93;5.57;;;;;;;24.00;57.44;100073.69;5086296;28;20036;-18
2023/06/30 07:15:59;;;;;;;6.20;5.05;;;;;;;24.35;55.69;100069.28;5086721;28;20028;-21
2023/06/30 07:18:25;;;;;;;6.53;5.18;;;;;;;24.45;56.28;100054.59;5086573;28;20043;-24
2023/06/30 07:20:54;;;;;;;8.82;5.47;;;;;;;24.73;54.39;100070.81;5086818;28;20036;-19
2023/06/30 07:23:25;;;;;;;7.20;4.82;;;;;;;24.80;53.43;100071.97;5086490;28;20028;-18
2023/06/30 07:25:50;;;;;;;6.03;5.05;;;;;;;24.83;52.96;100074.06;5085213;28;20431;-17
2023/06/30 07:28:18;;;;;;;6.70;5.10;;;;;;;25.01;50.45;100069.50;5086164;28;20487;-19
2023/06/30 07:30:44;;;;;;;7.00;4.75;;;;;;;25.13;50.16;100066.19;5086141;28;20852;-18
2023/06/30 07:33:12;;;;;;;6.68;4.43;;;;;;;25.02;49.09;100073.03;5086140;28;20499;-17
2023/06/30 07:35:37;;;;;;;6.63;5.03;;;;;;;25.09;53.54;100065.22;5086128;28;20451;-18
2023/06/30 07:38:06;;;;;;;7.38;4.72;;;;;;;25.38;49.81;100066.59;5086368;28;20628;-18
2023/06/30 07:40:34;;;;;;;6.38;4.78;;;;;;;25.67;49.57;100066.78;5086026;28;20062;-18
2023/06/30 07:42:59;;;;;;;5.53;4.43;;;;;;;25.89;47.99;100067.75;5085870;28;20082;-18
2023/06/30 07:45:24;;;;;;;6.72;4.50;;;;;;;25.94;49.67;100064.88;5086251;28;20479;-20
2023/06/30 07:47:50;;;;;;;7.28;4.53;;;;;;;25.92;48.20;100077.28;5086168;28;20039;-19
2023/06/30 07:50:18;;;;;;;7.65;4.80;;;;;;;26.10;51.05;100072.59;5085441;28;20020;-18
2023/06/30 07:52:54;;;;;;;;;;;;;;;;;;;;;
2023/06/30 07:55:20;;;;;;;11.13;6.60;;;;;;;26.25;45.81;100074.81;5084781;28;19911;-18
2023/06/30 07:57:48;;;;;;;7.25;4.50;;;;;;;26.15;47.15;100058.75;5085783;28;20036;-18
2023/06/30 08:00:28;;;;;;;6.60;4.45;;;;;;;26.24;50.26;100059.56;5085752;28;20024;-17
2023/06/30 08:03:12;;;;;;;5.22;3.83;;;;;;;26.06;47.09;100067.78;5085952;28;20029;-19
2023/06/30 08:05:52;;;;;;;5.38;3.70;;;;;;;26.44;44.93;100066.28;5083788;28;20047;-19
2023/06/30 08:08:25;;;;;;;6.70;4.03;;;;;;;26.45;42.91;100068.66;5085951;28;20037;-19
2023/06/30 08:10:50;;;;;;;5.32;3.58;;;;;;;26.48;42.79;100067.25;5085677;28;20024;-18
2023/06/30 08:13:15;;;;;;;4.95;3.47;;;;;;;26.44;43.02;100072.53;5085525;28;20788;-18
2023/06/30 08:15:43;;;;;;;5.75;3.35;;;;;;;26.37;42.35;100065.97;5085601;28;20031;-18
2023/06/30 08:18:21;;;;;;;;;;;;;;;;;;;;;
2023/06/30 08:20:52;;;;;;;5.60;3.83;;;;;;;26.55;44.71;100053.06;5082269;28;20032;-18
2023/06/30 08:23:20;;;;;;;6.60;3.40;;;;;;;26.68;43.87;100054.78;5085432;28;20028;-20
2023/06/30 08:25:45;;;;;;;4.88;3.60;;;;;;;26.54;43.08;100041.31;5085259;28;20032;-19
2023/06/30 08:28:10;;;;;;;5.15;3.30;;;;;;;26.61;42.08;100043.56;5085446;28;20035;-18
2023/06/30 08:30:39;;;;;;;4.50;3.13;;;;;;;26.86;41.61;100048.13;5085563;28;20020;-18
2023/06/30 08:33:04;;;;;;;5.47;3.08;;;;;;;27.06;42.70;100048.53;5085588;28;20031;-18
2023/06/30 08:35:29;;;;;;;5.15;3.40;;;;;;;26.85;40.16;100048.47;5085555;28;20024;-19
2023/06/30 08:37:55;;;;;;;6.07;3.30;;;;;;;27.02;41.95;100044.84;5085603;28;20081;-18
2023/06/30 08:40:31;;;;;;;4.90;3.08;;;;;;;27.08;39.72;100043.53;5085220;28;20103;-19
2023/06/30 08:43:07;;;;;;;4.63;3.00;;;;;;;27.20;41.10;100038.13;5085123;28;20040;-18
2023/06/30 08:45:33;;;;;;;5.57;3.30;;;;;;;27.38;40.92;100038.03;5085307;28;20028;-18
2023/06/30 08:48:05;;;;;;;5.13;3.00;;;;;;;27.42;40.66;100037.06;5085218;28;20064;-20
2023/06/30 08:50:34;;;;;;;8.23;3.25;;;;;;;27.51;39.06;100039.72;5085167;28;20024;-18
2023/06/30 08:53:00;;;;;;;4.45;3.05;;;;;;;27.49;41.30;100033.78;5084990;28;20103;-19
2023/06/30 08:55:26;;;;;;;4.50;3.13;;;;;;;27.70;39.36;100032.97;5088637;28;20052;-20
2023/06/30 08:57:56;;;;;;;4.78;3.20;;;;;;;27.59;41.98;100038.88;5089020;28;20024;-19
2023/06/30 09:00:25;;;;;;;4.28;3.03;;;;;;;27.76;38.28;100026.97;5089250;28;20020;-18
2023/06/30 09:02:55;;;;;;;3.47;2.65;;;;;;;27.81;38.93;100028.72;5089017;28;20126;-18
2023/06/30 09:05:24;;;;;;;3.20;2.50;;;;;;;27.77;36.83;100023.09;5088923;28;20143;-21
2023/06/30 09:07:54;;;;;;;4.00;2.28;;;;;;;28.05;35.94;100033.50;5089146;28;20056;-19
2023/06/30 09:10:23;;;;;;;3.00;2.20;;;;;;;27.85;36.10;100018.69;5089144;28;20023;-19
2023/06/30 09:12:51;;;;;;;3.33;2.30;;;;;;;28.25;34.40;100021.69;5089081;28;20118;-18
2023/06/30 09:15:19;;;;;;;3.60;2.25;;;;;;;28.23;32.43;100028.66;5088933;28;20121;-19
2023/06/30 09:17:46;;;;;;;3.90;2.33;;;;;;;27.95;32.08;100031.19;5088820;28;20054;-17
2023/06/30 09:20:12;;;;;;;4.63;2.42;;;;;;;28.07;32.60;100025.75;5088662;28;20503;-18
2023/06/30 09:22:46;;;;;;;3.20;2.00;;;;;;;28.22;32.22;100024.31;5088645;28;20028;-19
2023/06/30 09:25:26;;;;;;;4.18;2.40;;;;;;;28.53;32.98;100023.03;5088562;28;20574;-21
2023/06/30 09:27:55;;;;;;;3.38;1.80;;;;;;;28.49;31.74;100024.81;5088784;28;20032;-19
2023/06/30 09:30:42;;;;;;;3.15;2.00;;;;;;;28.74;33.36;100015.50;5088402;28;20057;-19
2023/06/30 09:33:08;;;;;;;4.57;2.45;;;;;;;28.56;33.62;100008.63;5088692;28;20081;-18
2023/06/30 09:35:41;;;;;;;4.07;2.17;;;;;;;29.03;33.51;100008.16;5088664;28;20042;-19
2023/06/30 09:38:16;;;;;;;5.28;2.08;;;;;;;28.84;35.87;100008.75;5088629;28;20034;-20
2023/06/30 09:40:46;;;;;;;3.92;2.20;;;;;;;28.52;32.32;100003.00;5088457;28;20031;-18
2023/06/30 09:43:17;;;;;;;3.55;1.77;;;;;;;28.72;36.34;99998.56;5088236;28;20056;-18
2023/06/30 09:45:44;;;;;;;3.25;1.90;;;;;;;28.85;31.53;100000.19;5088171;28;20814;-19
2023/06/30 09:48:13;;;;;;;2.55;1.88;;;;;;;29.07;33.39;99987.09;5088361;28;20031;-18
2023/06/30 09:50:42;;;;;;;4.18;2.20;;;;;;;29.18;31.38;99991.03;5088381;28;20024;-18
2023/06/30 09:53:08;;;;;;;3.28;1.60;;;;;;;29.10;32.22;99978.19;5087969;28;20078;-18
2023/06/30 09:55:45;;;;;;;2.53;1.80;;;;;;;29.50;30.36;99952.69;5088169;28;20502;-18
2023/06/30 09:58:11;;;;;;;3.78;2.33;;;;;;;29.75;32.48;99980.09;5088351;28;20035;-19
2023/06/30 10:00:37;;;;;;;3.83;1.70;;;;;;;29.81;31.20;99978.69;5087942;28;20118;-18
2023/06/30 10:03:06;;;;;;;1.98;1.60;;;;;;;29.65;30.74;99964.91;5088142;28;20036;-19
2023/06/30 10:05:32;;;;;;;2.88;1.90;;;;;;;29.69;32.39;99965.81;5087908;28;20046;-21
2023/06/30 10:08:03;;;;;;;2.10;1.90;;;;;;;29.79;31.65;99970.00;5088159;28;20024;-19
2023/06/30 10:10:29;;;;;;;2.75;1.85;;;;;;;30.00;30.82;99964.31;5087840;28;20051;-19
2023/06/30 10:12:58;;;;;;;3.45;1.80;;;;;;;29.91;35.72;99969.16;5089344;28;20119;-18
2023/06/30 10:15:32;;;;;;;3.00;1.92;;;;;;;30.07;31.46;99964.47;5108319;28;20042;-21
2023/06/30 10:17:59;;;;;;;3.83;1.80;;;;;;;30.10;32.23;99963.78;5108232;28;20119;-18
2023/06/30 10:20:25;;;;;;;4.95;1.63;;;;;;;30.44;30.86;99961.50;5107943;28;20055;-19
2023/06/30 10:22:51;;;;;;;2.30;1.40;;;;;;;30.51;27.00;99967.19;5107987;28;20028;-19
2023/06/30 10:25:19;;;;;;;3.27;1.40;;;;;;;30.26;31.01;99961.06;5107964;28;20115;-19
2023/06/30 10:27:49;;;;;;;;;;;;;;;30.24;27.80;99963.34;5108442;28;20289;-19
2023/06/30 10:30:18;;;;;;;1.60;1.40;;;;;;;30.31;28.27;99958.03;5107846;28;20471;-19
2023/06/30 10:32:51;;;;;;;2.05;1.30;;;;;;;30.51;26.55;99958.16;5108295;28;20034;-18
2023/06/30 10:35:20;;;;;;;1.60;1.17;;;;;;;30.44;27.70;99950.50;5107904;28;20051;-19
2023/06/30 10:37:48;;;;;;;1.98;1.27;;;;;;;30.58;28.96;99950.03;5107633;28;20026;-19
2023/06/30 10:40:30;;;;;;;2.40;1.10;;;;;;;30.71;29.47;99934.22;5107798;28;20581;-19
2023/06/30 10:42:59;;;;;;;2.60;1.23;;;;;;;31.16;26.53;99947.47;5107253;28;20044;-18
2023/06/30 10:45:33;;;;;;;1.33;1.20;;;;;;;31.25;25.13;99947.25;5107730;28;20055;-18
2023/06/30 10:48:18;;;;;;;2.13;1.20;;;;;;;30.93;27.28;99938.28;5107735;28;20038;-19
2023/06/30 10:50:47;;;;;;;2.15;1.40;;;;;;;31.06;26.79;99931.50;5105711;28;20034;-18
2023/06/30 10:53:44;;;;;;;2.13;1.35;;;;;;;30.82;27.25;99933.31;5107270;28;20754;-18
2023/06/30 10:56:24;;;;;;;2.67;1.08;;;;;;;31.39;23.97;99927.47;5092457;28;20034;-19
2023/06/30 10:58:51;;;;;;;1.98;1.20;;;;;;;31.41;25.35;99925.94;5107172;28;20165;-18
2023/06/30 11:01:18;;;;;;;1.40;1.10;;;;;;;31.44;25.54;99925.22;5107258;28;20112;-18
2023/06/30 11:03:56;;;;;;;1.20;1.00;;;;;;;31.64;23.88;99923.25;5106987;28;20490;-19
2023/06/30 11:06:24;;;;;;;1.35;0.90;;;;;;;31.53;22.91;99922.25;5106871;28;20183;-18
2023/06/30 11:09:09;;;;;;;2.40;1.00;;;;;;;31.66;24.79;99914.63;5107070;28;20024;-18
2023/06/30 11:12:00;;;;;;;2.25;1.20;;;;;;;31.51;24.42;99908.03;5107284;28;20502;-18
2023/06/30 11:14:32;;;;;;;4.22;1.00;;;;;;;31.75;23.81;99901.41;5106792;28;20024;-20
2023/06/30 11:17:15;;;;;;;1.52;1.00;;;;;;;31.66;23.69;99900.84;5106732;28;20020;-19
2023/06/30 11:19:55;;;;;;;1.77;0.95;;;;;;;31.80;23.43;99892.03;5106908;28;20060;-19
2023/06/30 11:22:24;;;;;;;0.98;0.88;;;;;;;31.74;24.18;99890.75;5106903;28;20024;-18
2023/06/30 11:24:54;;;;;;;2.38;0.90;;;;;;;31.80;24.18;99889.28;5106732;28;20023;-18
2023/06/30 11:27:23;;;;;;;1.15;0.80;;;;;;;31.48;25.68;99874.91;5106705;28;20118;-18
2023/06/30 11:29:53;;;;;;;1.80;1.00;;;;;;;31.59;24.86;99865.66;5106522;28;20035;-18
2023/06/30 11:32:25;;;;;;;2.20;1.10;;;;;;;32.04;24.10;99871.59;5106753;28;20456;-18
2023/06/30 11:34:58;;;;;;;2.03;1.08;;;;;;;32.20;24.46;99871.44;5106302;28;20019;-19
2023/06/30 11:37:26;;;;;;;1.95;0.93;;;;;;;32.33;21.99;99875.59;5106421;28;20054;-19